createdAt,value
2023-02-26T00:02:40.932Z,6.39
2023-02-26T00:05:27.643Z,5.73
2023-02-26T00:08:14.221Z,5.78
2023-02-26T00:11:02.754Z,5.73
2023-02-26T00:13:49.947Z,5.85
2023-02-26T00:16:38.147Z,6.21
2023-02-26T00:19:24.934Z,5.64
2023-02-26T00:22:11.677Z,5.92
2023-02-26T00:24:58.330Z,5.85
2023-02-26T00:27:46.939Z,5.77
2023-02-26T00:30:35.745Z,5.41
2023-02-26T00:33:22.530Z,5.70
2023-02-26T00:36:21.612Z,5.74
2023-02-26T00:39:31.207Z,5.39
2023-02-26T00:42:18.146Z,5.10
2023-02-26T00:45:07.260Z,4.92
2023-02-26T00:48:06.260Z,4.96
2023-02-26T00:51:02.021Z,4.98
2023-02-26T00:53:58.002Z,4.81
2023-02-26T00:56:44.399Z,5.08
2023-02-26T00:59:31.205Z,5.16
2023-02-26T01:02:18.747Z,5.30
2023-02-26T01:05:06.890Z,5.46
2023-02-26T01:08:02.951Z,4.77
2023-02-26T01:10:50.055Z,3.36
2023-02-26T01:13:37.859Z,1.41
2023-02-26T01:16:29.599Z,0.86
2023-02-26T01:19:27.351Z,0.78
2023-02-26T01:22:20.475Z,0.39
2023-02-26T01:25:11.160Z,0.37
2023-02-26T01:27:58.569Z,0.31
2023-02-26T01:30:46.257Z,0.46
2023-02-26T01:33:41.390Z,0.86
2023-02-26T01:36:34.633Z,0.67
2023-02-26T01:39:30.119Z,0.80
2023-02-26T01:42:20.430Z,1.28
2023-02-26T01:45:12.436Z,1.98
2023-02-26T01:48:05.642Z,2.25
2023-02-26T01:50:52.255Z,0.83
2023-02-26T01:53:41.187Z,0.61
2023-02-26T01:56:27.843Z,0.59
2023-02-26T01:59:17.166Z,0.61
2023-02-26T02:02:06.322Z,1.49
2023-02-26T02:04:54.464Z,1.67
2023-02-26T02:07:41.535Z,2.38
2023-02-26T02:10:29.998Z,3.63
2023-02-26T02:13:27.192Z,3.74
2023-02-26T02:16:26.137Z,3.74
2023-02-26T02:19:40.268Z,2.50
2023-02-26T02:22:59.859Z,2.51
2023-02-26T02:26:15.714Z,2.63
2023-02-26T02:29:24.037Z,2.65
2023-02-26T02:32:15.580Z,2.75
2023-02-26T02:35:11.874Z,2.52
2023-02-26T02:38:05.509Z,2.69
2023-02-26T02:40:57.237Z,2.61
2023-02-26T02:43:46.100Z,2.59
2023-02-26T02:46:40.989Z,2.40
2023-02-26T02:49:35.091Z,3.37
2023-02-26T02:52:27.881Z,3.87
2023-02-26T02:55:19.460Z,3.68
2023-02-26T02:58:10.257Z,3.74
2023-02-26T03:01:01.794Z,3.55
2023-02-26T03:03:54.843Z,3.75
2023-02-26T03:06:46.591Z,4.08
2023-02-26T03:09:33.538Z,3.63
2023-02-26T03:12:20.076Z,3.70
2023-02-26T03:15:08.318Z,3.60
2023-02-26T03:18:06.797Z,3.85
2023-02-26T03:21:01.083Z,3.63
2023-02-26T03:23:58.812Z,3.33
2023-02-26T03:26:52.029Z,4.11
2023-02-26T03:29:44.361Z,3.72
2023-02-26T03:32:35.565Z,4.10
2023-02-26T03:35:28.981Z,3.74
2023-02-26T03:38:23.200Z,3.92
2023-02-26T03:41:15.993Z,3.48
2023-02-26T03:44:07.446Z,3.49
2023-02-26T03:46:58.800Z,3.53
2023-02-26T03:49:51.337Z,3.87
2023-02-26T03:52:42.114Z,3.65
2023-02-26T03:55:40.626Z,3.48
2023-02-26T03:58:47.710Z,3.49
2023-02-26T04:02:04.528Z,3.65
2023-02-26T04:04:57.318Z,3.67
2023-02-26T04:07:45.618Z,4.02
2023-02-26T04:10:39.091Z,4.27
2023-02-26T04:13:26.174Z,2.99
2023-02-26T04:16:14.849Z,2.53
2023-02-26T04:19:01.454Z,3.19
2023-02-26T04:21:48.825Z,4.05
2023-02-26T04:24:36.058Z,3.92
2023-02-26T04:27:23.454Z,3.91
2023-02-26T04:30:11.569Z,3.89
2023-02-26T04:32:59.502Z,4.45
2023-02-26T04:35:45.796Z,3.80
2023-02-26T04:38:32.121Z,4.03
2023-02-26T04:41:18.279Z,4.05
2023-02-26T04:44:07.844Z,4.44
2023-02-26T04:46:56.606Z,4.18
2023-02-26T04:49:44.470Z,3.97
2023-02-26T04:52:31.770Z,3.86
2023-02-26T04:55:18.816Z,3.81
2023-02-26T04:58:05.102Z,4.31
2023-02-26T05:00:53.599Z,4.28
2023-02-26T05:03:40.075Z,4.08
2023-02-26T05:06:27.985Z,4.15
2023-02-26T05:09:15.253Z,3.56
2023-02-26T05:12:02.017Z,4.00
2023-02-26T05:14:49.122Z,4.10
2023-02-26T05:17:36.436Z,3.72
2023-02-26T05:20:23.408Z,3.83
2023-02-26T05:23:11.214Z,3.81
2023-02-26T05:25:59.760Z,3.66
2023-02-26T05:28:46.709Z,3.53
2023-02-26T05:31:33.743Z,3.59
2023-02-26T05:34:20.548Z,3.92
2023-02-26T05:37:06.791Z,3.81
2023-02-26T05:39:54.545Z,4.00
2023-02-26T05:42:41.825Z,3.43
2023-02-26T05:45:28.320Z,3.22
2023-02-26T05:48:14.704Z,2.63
2023-02-26T05:51:01.481Z,1.60
2023-02-26T05:53:47.951Z,-0.39
2023-02-26T05:56:35.794Z,-1.79
2023-02-26T05:59:22.181Z,-1.52
2023-02-26T06:02:09.388Z,-1.42
2023-02-26T06:04:55.953Z,-1.46
2023-02-26T06:07:42.640Z,-1.27
2023-02-26T06:10:29.104Z,-1.33
2023-02-26T06:13:17.000Z,-1.28
2023-02-26T06:16:03.761Z,-1.36
2023-02-26T06:18:50.742Z,-1.31
2023-02-26T06:21:37.653Z,-1.11
2023-02-26T06:24:24.259Z,-0.77
2023-02-26T06:27:10.905Z,-1.00
2023-02-26T06:29:59.026Z,-0.81
2023-02-26T06:32:45.496Z,-0.71
2023-02-26T06:35:32.019Z,-0.85
2023-02-26T06:38:19.393Z,-0.87
2023-02-26T06:41:05.932Z,-0.80
2023-02-26T06:43:52.644Z,0.16
2023-02-26T06:46:41.018Z,-1.22
2023-02-26T06:49:27.431Z,-1.11
2023-02-26T06:52:13.833Z,-0.94
2023-02-26T06:55:00.441Z,-0.94
2023-02-26T06:57:46.958Z,-1.01
2023-02-26T07:00:33.510Z,-0.71
2023-02-26T07:03:21.722Z,-0.59
2023-02-26T07:06:26.034Z,-0.56
2023-02-26T07:09:14.048Z,1.54
2023-02-26T07:12:00.623Z,2.78
2023-02-26T07:14:47.431Z,3.13
2023-02-26T07:17:34.089Z,2.92
2023-02-26T07:20:23.173Z,-0.18
2023-02-26T07:23:10.732Z,-0.36
2023-02-26T07:25:57.861Z,-0.34
2023-02-26T07:28:45.112Z,-0.20
2023-02-26T07:31:32.082Z,-0.25
2023-02-26T07:34:18.729Z,-0.32
2023-02-26T07:37:06.373Z,-0.25
2023-02-26T07:39:53.184Z,-0.02
2023-02-26T07:42:40.431Z,0.03
2023-02-26T07:45:27.820Z,0.08
2023-02-26T07:48:14.974Z,0.17
2023-02-26T07:51:02.414Z,0.26
2023-02-26T07:53:50.367Z,0.44
2023-02-26T07:56:37.010Z,0.65
2023-02-26T07:59:23.812Z,0.41
2023-02-26T08:02:12.453Z,0.79
2023-02-26T08:04:59.139Z,1.05
2023-02-26T08:07:45.666Z,1.20
2023-02-26T08:10:34.247Z,1.45
2023-02-26T08:13:21.023Z,1.61
2023-02-26T08:16:07.703Z,1.90
2023-02-26T08:18:54.445Z,1.94
2023-02-26T08:21:41.399Z,2.10
2023-02-26T08:24:28.072Z,2.32
2023-02-26T08:27:16.091Z,2.43
2023-02-26T08:30:02.707Z,2.81
2023-02-26T08:32:49.840Z,2.80
2023-02-26T08:35:36.429Z,2.88
2023-02-26T08:38:23.224Z,3.35
2023-02-26T08:41:10.181Z,2.98
2023-02-26T08:43:57.935Z,2.99
2023-02-26T08:46:44.766Z,3.40
2023-02-26T08:49:31.371Z,3.38
2023-02-26T08:52:17.871Z,3.11
2023-02-26T08:55:04.657Z,3.47
2023-02-26T08:57:51.528Z,3.51
2023-02-26T09:00:39.585Z,3.89
2023-02-26T09:03:26.509Z,3.71
2023-02-26T10:00:25.609Z,4.56
2023-02-26T10:03:26.569Z,4.70
2023-02-26T10:06:25.325Z,4.77
2023-02-26T10:09:27.498Z,4.95
2023-02-26T10:12:17.227Z,4.82
2023-02-26T10:15:09.556Z,4.90
2023-02-26T10:18:06.113Z,5.16
2023-02-26T10:20:58.377Z,5.29
2023-02-26T10:23:48.865Z,5.44
2023-02-26T10:26:41.170Z,5.45
2023-02-26T10:29:36.090Z,5.51
2023-02-26T10:32:27.552Z,5.29
2023-02-26T10:35:18.978Z,5.03
2023-02-26T10:38:12.311Z,5.32
2023-02-26T10:41:03.792Z,5.79
2023-02-26T10:43:56.286Z,5.78
2023-02-26T10:46:52.967Z,6.01
2023-02-26T10:49:52.050Z,6.13
2023-02-26T10:52:40.555Z,6.07
2023-02-26T10:55:41.256Z,6.63
2023-02-26T10:58:28.309Z,6.42
2023-02-26T11:01:18.806Z,6.41
2023-02-26T11:04:08.003Z,6.38
2023-02-26T11:06:57.410Z,6.77
2023-02-26T11:09:47.037Z,6.06
2023-02-26T11:12:33.818Z,6.29
2023-02-26T11:15:22.770Z,6.34
2023-02-26T11:18:14.675Z,6.16
2023-02-26T11:21:02.078Z,6.47
2023-02-26T11:23:48.539Z,6.76
2023-02-26T11:26:38.892Z,6.67
2023-02-26T11:29:27.166Z,6.26
2023-02-26T11:32:19.039Z,6.12
2023-02-26T11:35:09.286Z,5.96
2023-02-26T11:37:59.870Z,6.16
2023-02-26T11:40:49.957Z,6.51
2023-02-26T11:43:44.785Z,6.73
2023-02-26T11:46:32.501Z,6.34
2023-02-26T11:49:23.328Z,5.96
2023-02-26T11:52:21.274Z,6.26
2023-02-26T11:55:20.023Z,6.65
2023-02-26T11:58:17.798Z,6.58
2023-02-26T12:01:08.078Z,6.67
2023-02-26T12:03:58.656Z,6.46
2023-02-26T12:06:46.921Z,6.84
2023-02-26T12:09:34.108Z,6.92
2023-02-26T12:12:33.409Z,6.75
2023-02-26T12:15:30.558Z,6.67
2023-02-26T12:18:31.486Z,7.11
2023-02-26T12:21:41.956Z,7.44
2023-02-26T12:24:51.313Z,7.79
2023-02-26T12:27:54.955Z,7.90
2023-02-26T12:30:57.254Z,7.47
2023-02-26T12:33:55.521Z,8.00
2023-02-26T12:36:57.810Z,8.00
2023-02-26T12:39:58.162Z,7.80
2023-02-26T12:42:53.827Z,8.20
2023-02-26T12:45:55.780Z,7.31
2023-02-26T12:49:07.398Z,7.33
2023-02-26T12:52:09.738Z,8.46
2023-02-26T12:55:09.708Z,9.28
2023-02-26T12:58:21.624Z,8.54
2023-02-26T13:01:34.036Z,8.43
2023-02-26T13:04:39.622Z,7.56
2023-02-26T13:07:55.277Z,7.88
2023-02-26T13:10:55.820Z,8.11
2023-02-26T13:13:58.364Z,8.79
2023-02-26T13:16:51.508Z,9.42
2023-02-26T13:19:47.161Z,8.77
2023-02-26T13:22:39.073Z,8.59
2023-02-26T13:25:33.052Z,8.78
2023-02-26T13:28:27.260Z,8.77
2023-02-26T13:31:18.182Z,8.81
2023-02-26T13:34:11.935Z,9.11
2023-02-26T13:37:00.846Z,9.25
2023-02-26T13:39:53.464Z,9.12
2023-02-26T13:42:47.578Z,8.78
2023-02-26T13:45:44.536Z,9.28
2023-02-26T13:48:41.584Z,8.69
2023-02-26T13:51:34.791Z,8.74
2023-02-26T13:54:36.797Z,8.06
2023-02-26T13:57:36.216Z,8.99
2023-02-26T14:00:28.308Z,9.12
2023-02-26T14:03:32.331Z,9.17
2023-02-26T14:06:36.487Z,8.91
2023-02-26T14:09:43.959Z,9.29
2023-02-26T14:12:37.228Z,9.51
2023-02-26T14:15:40.954Z,9.11
2023-02-26T14:18:35.955Z,9.36
2023-02-26T14:21:36.396Z,8.70
2023-02-26T14:24:26.321Z,8.80
2023-02-26T14:27:34.329Z,9.05
2023-02-26T14:30:29.821Z,9.54
2023-02-26T14:33:18.515Z,9.19
2023-02-26T14:36:06.960Z,9.38
2023-02-26T14:38:54.137Z,8.60
2023-02-26T14:41:42.138Z,9.90
2023-02-26T14:44:33.642Z,9.54
2023-02-26T14:47:20.770Z,9.77
2023-02-26T14:50:08.470Z,9.81
2023-02-26T14:53:22.302Z,9.82
2023-02-26T14:56:17.280Z,9.77
2023-02-26T14:59:20.601Z,9.31
2023-02-26T15:02:24.464Z,9.33
2023-02-26T15:05:22.507Z,10.34
2023-02-26T15:08:35.961Z,9.61
2023-02-26T15:11:47.035Z,10.33
2023-02-26T15:14:51.599Z,9.99
2023-02-26T15:17:50.648Z,10.10
2023-02-26T15:20:49.195Z,10.04
2023-02-26T15:23:48.238Z,9.84
2023-02-26T15:26:37.121Z,10.26
2023-02-26T15:29:28.998Z,10.74
2023-02-26T15:32:18.322Z,10.66
2023-02-26T15:35:16.588Z,10.31
2023-02-26T15:38:04.226Z,9.96
2023-02-26T15:40:53.026Z,10.25
2023-02-26T15:43:39.598Z,11.53
2023-02-26T15:46:32.046Z,8.04
2023-02-26T15:49:25.573Z,6.43
2023-02-26T15:52:18.415Z,6.50
2023-02-26T15:55:07.104Z,6.31
2023-02-26T15:57:55.713Z,6.52
2023-02-26T16:00:43.338Z,7.03
2023-02-26T16:03:33.583Z,6.56
2023-02-26T16:06:25.652Z,6.39
2023-02-26T16:09:19.258Z,6.45
2023-02-26T16:12:09.360Z,6.52
2023-02-26T16:15:01.480Z,6.14
2023-02-26T16:17:51.698Z,6.60
2023-02-26T16:20:40.428Z,6.66
2023-02-26T16:23:41.576Z,6.41
2023-02-26T16:26:33.751Z,6.26
2023-02-26T16:29:24.555Z,6.40
2023-02-26T16:32:13.552Z,6.78
2023-02-26T16:35:08.905Z,7.09
2023-02-26T16:37:55.783Z,6.57
2023-02-26T16:40:44.338Z,5.81
2023-02-26T16:43:49.229Z,5.34
2023-02-26T16:46:42.575Z,5.10
2023-02-26T16:49:33.097Z,4.78
2023-02-26T16:52:23.394Z,4.84
2023-02-26T16:55:18.258Z,4.99
2023-02-26T16:58:07.620Z,4.51
2023-02-26T17:01:01.620Z,4.85
2023-02-26T17:03:50.939Z,4.90
2023-02-26T17:06:41.927Z,4.96
2023-02-26T17:09:37.060Z,4.98
2023-02-26T17:12:25.708Z,4.30
2023-02-26T17:15:20.713Z,4.56
2023-02-26T17:18:08.649Z,4.30
2023-02-26T17:20:56.076Z,4.18
2023-02-26T17:23:42.800Z,4.21
2023-02-26T17:26:29.658Z,3.65
2023-02-26T17:29:20.711Z,4.11
2023-02-26T17:32:10.043Z,4.45
2023-02-26T17:34:58.166Z,4.40
2023-02-26T17:37:44.936Z,4.41
2023-02-26T17:40:36.405Z,4.25
2023-02-26T17:43:23.444Z,4.32
2023-02-26T17:46:12.042Z,4.21
2023-02-26T17:48:58.554Z,4.29
2023-02-26T17:51:46.029Z,4.52
2023-02-26T17:54:32.441Z,4.33
2023-02-26T17:57:21.007Z,4.42
2023-02-26T18:00:10.166Z,4.37
2023-02-26T18:03:01.703Z,4.10
2023-02-26T18:05:49.114Z,4.15
2023-02-26T18:08:36.623Z,4.01
2023-02-26T18:11:26.025Z,4.11
2023-02-26T18:14:12.912Z,4.20
2023-02-26T18:16:59.381Z,4.02
2023-02-26T18:19:46.215Z,4.18
2023-02-26T18:22:32.414Z,4.11
2023-02-26T18:25:19.960Z,4.00
2023-02-26T18:28:07.540Z,3.90
2023-02-26T18:30:55.305Z,3.89
2023-02-26T18:33:43.942Z,3.69
2023-02-26T18:36:37.404Z,3.70
2023-02-26T18:39:27.412Z,3.90
2023-02-26T18:42:21.464Z,3.81
2023-02-26T18:45:09.053Z,3.81
2023-02-26T18:47:56.392Z,3.91
2023-02-26T18:50:42.912Z,3.86
2023-02-26T18:53:29.441Z,3.68
2023-02-26T18:56:15.680Z,3.73
2023-02-26T18:59:03.294Z,3.76
2023-02-26T19:01:49.493Z,3.67
2023-02-26T19:04:36.394Z,3.80
2023-02-26T19:07:22.583Z,3.54
2023-02-26T19:10:13.351Z,3.54
2023-02-26T19:12:59.689Z,3.42
2023-02-26T19:15:48.164Z,3.41
2023-02-26T19:18:34.773Z,3.37
2023-02-26T19:21:21.197Z,3.21
2023-02-26T19:24:10.909Z,3.19
2023-02-26T19:26:57.382Z,3.24
2023-02-26T19:29:43.921Z,3.22
2023-02-26T19:32:31.921Z,3.41
2023-02-26T19:35:19.521Z,3.48
2023-02-26T19:38:05.961Z,3.49
2023-02-26T19:40:52.821Z,3.36
2023-02-26T19:43:38.794Z,3.41
2023-02-26T19:46:25.710Z,3.45
2023-02-26T19:49:14.298Z,3.29
2023-02-26T19:52:00.661Z,3.19
2023-02-26T19:54:46.833Z,3.12
2023-02-26T19:57:33.246Z,3.17
2023-02-26T20:00:19.828Z,3.21
2023-02-26T20:03:06.151Z,3.12
2023-02-26T20:05:55.025Z,3.00
2023-02-26T20:08:42.278Z,2.89
2023-02-26T20:11:28.773Z,3.03
2023-02-26T20:14:15.928Z,2.83
2023-02-26T20:17:02.273Z,2.77
2023-02-26T20:19:48.934Z,2.97
2023-02-26T20:22:36.761Z,2.84
2023-02-26T20:25:23.886Z,2.80
2023-02-26T20:28:10.898Z,2.91
2023-02-26T20:30:57.597Z,2.76
2023-02-26T20:33:44.070Z,2.74
2023-02-26T20:36:30.145Z,2.58
2023-02-26T20:39:19.366Z,2.52
2023-02-26T20:42:05.974Z,2.71
2023-02-26T20:44:52.079Z,2.71
2023-02-26T20:47:38.606Z,2.61
2023-02-26T20:50:25.148Z,2.53
2023-02-26T20:53:11.637Z,2.51
2023-02-26T20:55:59.486Z,2.60
2023-02-26T20:58:45.877Z,2.58
2023-02-26T21:01:35.614Z,2.40
2023-02-26T21:04:22.108Z,2.65
2023-02-26T21:07:17.599Z,2.56
2023-02-26T21:10:05.280Z,2.32
2023-02-26T21:12:53.427Z,2.40
2023-02-26T21:15:40.253Z,2.24
2023-02-26T21:18:26.338Z,2.13
2023-02-26T21:21:12.415Z,2.16
2023-02-26T21:23:58.928Z,2.24
2023-02-26T21:26:45.414Z,2.18
2023-02-26T21:29:33.556Z,2.14
2023-02-26T21:32:20.723Z,2.12
2023-02-26T21:35:08.036Z,2.17
2023-02-26T21:37:54.578Z,2.08
2023-02-26T21:40:40.732Z,1.95
2023-02-26T21:43:27.138Z,2.06
2023-02-26T21:46:15.063Z,1.82
2023-02-26T21:49:01.952Z,1.73
2023-02-26T21:51:48.026Z,1.67
2023-02-26T21:54:35.147Z,1.78
2023-02-26T21:57:21.656Z,1.82
2023-02-26T22:00:11.077Z,1.82
2023-02-26T22:03:01.430Z,1.94
2023-02-26T22:05:51.130Z,1.89
2023-02-26T22:08:37.624Z,2.05
2023-02-26T22:11:24.299Z,2.08
2023-02-26T22:14:10.849Z,1.93
2023-02-26T22:16:57.109Z,2.16
2023-02-26T22:19:45.158Z,2.14
2023-02-26T22:22:31.691Z,2.14
2023-02-26T22:25:17.806Z,2.26
2023-02-26T22:28:04.903Z,2.08
2023-02-26T22:30:51.807Z,2.00
2023-02-26T22:33:38.277Z,2.16
2023-02-26T22:36:27.420Z,2.01
2023-02-26T22:39:14.388Z,1.97
2023-02-26T22:42:01.084Z,1.95
2023-02-26T22:44:47.295Z,1.80
2023-02-26T22:47:34.212Z,1.73
2023-02-26T22:50:21.099Z,1.79
2023-02-26T22:53:09.194Z,1.71
2023-02-26T22:55:55.966Z,1.79
2023-02-26T22:58:42.245Z,1.87
2023-02-26T23:01:29.924Z,1.84
2023-02-26T23:04:16.535Z,1.74
2023-02-26T23:07:02.901Z,1.80
2023-02-26T23:09:50.988Z,1.75
2023-02-26T23:12:38.491Z,1.68
2023-02-26T23:15:24.758Z,1.72
2023-02-26T23:18:11.257Z,1.77
2023-02-26T23:20:57.661Z,1.93
2023-02-26T23:23:44.800Z,1.86
2023-02-26T23:26:32.923Z,1.75
2023-02-26T23:29:19.167Z,1.64
2023-02-26T23:32:05.892Z,1.83
2023-02-26T23:34:52.044Z,1.89
2023-02-26T23:37:38.529Z,2.04
2023-02-26T23:40:24.917Z,1.94
2023-02-26T23:43:12.621Z,1.93
2023-02-26T23:45:59.187Z,1.96
2023-02-26T23:48:45.985Z,2.01
2023-02-26T23:51:32.454Z,2.00
2023-02-26T23:54:18.632Z,1.79
2023-02-26T23:57:05.164Z,1.76
2023-02-26T23:59:52.836Z,1.67
